createdAt,value
2018-10-17T00:00:21.641Z,5.6
2018-10-17T00:01:12.557Z,5.6
2018-10-17T00:02:01.768Z,5.6
2018-10-17T00:02:52.142Z,5.5
2018-10-17T00:03:42.154Z,5.5
2018-10-17T00:04:32.229Z,5.5
2018-10-17T00:05:22.281Z,5.4
2018-10-17T00:06:12.353Z,5.4
2018-10-17T00:07:02.290Z,5.4
2018-10-17T00:25:18.443Z,4.9
2018-10-17T00:26:08.660Z,4.9
2018-10-17T00:26:58.131Z,4.9
2018-10-17T00:27:48.760Z,4.9
2018-10-17T00:28:38.824Z,4.9
2018-10-17T00:29:28.593Z,4.9
2018-10-17T00:30:18.673Z,4.9
2018-10-17T00:31:09.411Z,4.8
2018-10-17T00:31:58.485Z,4.8
2018-10-17T00:32:48.550Z,4.8
2018-10-17T00:33:39.169Z,4.8
2018-10-17T00:34:28.718Z,4.8
2018-10-17T00:35:19.503Z,4.7
2018-10-17T00:36:08.819Z,4.7
2018-10-17T00:36:59.658Z,4.7
2018-10-17T00:37:48.639Z,4.7
2018-10-17T00:38:39.250Z,4.6
2018-10-17T00:39:29.308Z,4.6
2018-10-17T00:40:19.909Z,4.6
2018-10-17T00:41:10.184Z,4.6
2018-10-17T00:41:59.801Z,4.6
2018-10-17T00:42:49.841Z,4.5
2018-10-17T00:43:39.911Z,4.5
2018-10-17T00:44:30.223Z,4.5
2018-10-17T00:45:20.299Z,4.5
2018-10-17T00:46:09.805Z,4.5
2018-10-17T00:47:00.313Z,4.5
2018-10-17T00:47:49.941Z,4.4
2018-10-17T00:48:40.277Z,4.4
2018-10-17T00:49:30.356Z,4.4
2018-10-17T00:50:20.391Z,4.4
2018-10-17T00:51:10.464Z,4.4
2018-10-17T00:51:59.949Z,4.4
2018-10-17T00:52:50.023Z,4.4
2018-10-17T00:53:40.375Z,4.4
2018-10-17T00:54:30.723Z,4.4
2018-10-17T00:55:20.480Z,4.4
2018-10-17T00:56:10.861Z,4.4
2018-10-17T00:57:00.619Z,4.4
2018-10-17T00:57:51.186Z,4.4
2018-10-17T00:58:41.018Z,4.4
2018-10-17T00:59:31.086Z,4.4
2018-10-17T01:00:21.143Z,4.4
2018-10-17T01:01:11.983Z,4.4
2018-10-17T01:02:01.257Z,4.4
2018-10-17T01:02:51.044Z,4.4
2018-10-17T01:03:41.383Z,4.4
2018-10-17T01:04:31.464Z,4.4
2018-10-17T01:05:21.527Z,4.4
2018-10-17T01:06:11.568Z,4.4
2018-10-17T01:07:02.069Z,4.4
2018-10-17T01:07:51.426Z,4.4
2018-10-17T01:08:42.024Z,4.4
2018-10-17T01:09:31.810Z,4.4
2018-10-17T01:10:21.928Z,4.3
2018-10-17T01:11:12.351Z,4.3
2018-10-17T01:12:01.723Z,4.3
2018-10-17T01:12:52.220Z,4.3
2018-10-17T01:13:41.851Z,4.3
2018-10-17T01:14:32.188Z,4.3
2018-10-17T01:15:21.701Z,4.3
2018-10-17T01:16:12.358Z,4.3
2018-10-17T01:17:02.560Z,4.3
2018-10-17T01:17:52.193Z,4.3
2018-10-17T01:18:42.743Z,4.3
2018-10-17T01:19:32.298Z,4.3
2018-10-17T01:20:22.360Z,4.3
2018-10-17T01:21:12.934Z,4.2
2018-10-17T01:22:02.812Z,4.2
2018-10-17T01:22:53.001Z,4.1
2018-10-17T01:23:42.317Z,4.1
2018-10-17T01:24:32.906Z,4.1
2018-10-17T01:25:22.439Z,4.1
2018-10-17T01:26:12.808Z,4.1
2018-10-17T01:27:02.827Z,4.1
2018-10-17T01:27:53.174Z,4.1
2018-10-17T01:28:42.374Z,4.1
2018-10-17T01:29:33.582Z,4.1
2018-10-17T01:30:23.353Z,4
2018-10-17T01:31:13.703Z,4
2018-10-17T01:32:03.198Z,4
2018-10-17T01:32:53.272Z,3.9
2018-10-17T01:33:43.327Z,3.9
2018-10-17T01:34:33.674Z,3.9
2018-10-17T01:35:23.436Z,3.9
2018-10-17T01:36:13.796Z,3.9
2018-10-17T01:37:03.902Z,3.9
2018-10-17T01:37:53.637Z,3.9
2018-10-17T01:38:43.954Z,3.8
2018-10-17T01:39:34.042Z,3.8
2018-10-17T01:40:24.407Z,3.8
2018-10-17T01:41:14.867Z,3.8
2018-10-17T01:42:04.223Z,3.8
2018-10-17T01:42:54.178Z,3.8
2018-10-17T01:43:44.049Z,3.8
2018-10-17T01:44:34.665Z,3.7
2018-10-17T01:45:24.179Z,3.7
2018-10-17T01:46:14.201Z,3.7
2018-10-17T01:47:04.981Z,3.7
2018-10-17T01:47:54.635Z,3.7
2018-10-17T01:48:44.159Z,3.6
2018-10-17T01:49:33.905Z,3.6
2018-10-17T01:50:24.826Z,3.6
2018-10-17T01:51:14.606Z,3.6
2018-10-17T01:52:04.668Z,3.6
2018-10-17T01:52:55.372Z,3.6
2018-10-17T01:53:44.791Z,3.6
2018-10-17T01:54:34.839Z,3.6
2018-10-17T01:55:24.922Z,3.6
2018-10-17T01:56:15.241Z,3.6
2018-10-17T01:57:05.323Z,3.6
2018-10-17T01:57:55.410Z,3.6
2018-10-17T01:58:45.440Z,3.6
2018-10-17T01:59:35.500Z,3.6
2018-10-17T02:00:25.593Z,3.5
2018-10-17T02:01:16.019Z,3.5
2018-10-17T02:02:05.668Z,3.5
2018-10-17T02:02:55.749Z,3.5
2018-10-17T02:03:45.537Z,3.5
2018-10-17T02:04:35.587Z,3.5
2018-10-17T02:05:25.662Z,3.5
2018-10-17T02:06:15.980Z,3.5
2018-10-17T02:07:06.360Z,3.5
2018-10-17T02:07:55.535Z,3.5
2018-10-17T02:08:45.902Z,3.5
2018-10-17T02:09:36.235Z,3.5
2018-10-17T02:10:26.299Z,3.5
2018-10-17T02:11:16.649Z,3.5
2018-10-17T02:12:05.867Z,3.5
2018-10-17T02:12:56.701Z,3.5
2018-10-17T02:13:46.542Z,3.5
2018-10-17T02:14:36.057Z,3.5
2018-10-17T02:15:26.927Z,3.5
2018-10-17T02:16:16.735Z,3.5
2018-10-17T02:17:07.071Z,3.5
2018-10-17T02:17:56.571Z,3.5
2018-10-17T02:18:46.893Z,3.4
2018-10-17T02:19:36.974Z,3.4
2018-10-17T02:20:27.024Z,3.4
2018-10-17T02:21:16.808Z,3.4
2018-10-17T02:22:07.157Z,3.4
2018-10-17T02:22:56.811Z,3.4
2018-10-17T02:23:47.284Z,3.4
2018-10-17T02:24:37.354Z,3.4
2018-10-17T02:25:27.107Z,3.4
2018-10-17T02:26:17.187Z,3.4
2018-10-17T02:27:07.810Z,3.4
2018-10-17T02:27:57.574Z,3.4
2018-10-17T02:28:47.329Z,3.4
2018-10-17T02:29:37.683Z,3.4
2018-10-17T02:30:27.813Z,3.3
2018-10-17T02:31:18.380Z,3.3
2018-10-17T02:32:07.953Z,3.3
2018-10-17T02:32:57.940Z,3.3
2018-10-17T02:33:48.281Z,3.3
2018-10-17T02:34:38.078Z,3.3
2018-10-17T02:35:27.529Z,3.3
2018-10-17T02:36:17.949Z,3.3
2018-10-17T02:37:08.861Z,3.3
2018-10-17T02:37:58.305Z,3.3
2018-10-17T02:38:48.088Z,3.3
2018-10-17T02:39:38.116Z,3.3
2018-10-17T02:40:28.503Z,3.2
2018-10-17T02:41:18.676Z,3.2
2018-10-17T02:42:08.636Z,3.2
2018-10-17T02:42:59.073Z,3.2
2018-10-17T02:43:48.478Z,3.2
2018-10-17T02:44:38.810Z,3.2
2018-10-17T02:45:28.897Z,3.1
2018-10-17T02:46:18.359Z,3.2
2018-10-17T02:47:09.737Z,3.1
2018-10-17T02:47:58.775Z,3.1
2018-10-17T02:48:49.150Z,3.1
2018-10-17T02:49:38.878Z,3.1
2018-10-17T02:50:28.973Z,3.1
2018-10-17T02:51:19.025Z,3.1
2018-10-17T02:52:09.602Z,3.1
2018-10-17T02:52:59.633Z,3.1
2018-10-17T02:53:49.484Z,3.1
2018-10-17T02:54:39.541Z,3.1
2018-10-17T02:55:29.607Z,3.1
2018-10-17T02:56:19.680Z,3.1
2018-10-17T02:57:09.981Z,3.1
2018-10-17T02:57:59.505Z,3.1
2018-10-17T02:58:50.139Z,3.1
2018-10-17T02:59:39.902Z,3
2018-10-17T03:00:30.029Z,3
2018-10-17T03:01:20.291Z,3
2018-10-17T03:02:09.804Z,3
2018-10-17T03:02:59.877Z,3
2018-10-17T03:03:50.477Z,3
2018-10-17T03:04:39.997Z,3
2018-10-17T03:05:30.354Z,3
2018-10-17T03:06:20.388Z,3
2018-10-17T03:07:10.496Z,3
2018-10-17T03:08:00.517Z,3
2018-10-17T03:08:50.306Z,3
2018-10-17T03:09:40.377Z,2.9
2018-10-17T03:10:30.154Z,2.9
2018-10-17T03:11:20.945Z,3
2018-10-17T03:12:10.863Z,2.9
2018-10-17T03:13:01.198Z,2.9
2018-10-17T03:13:50.956Z,2.9
2018-10-17T03:14:41.037Z,2.9
2018-10-17T03:15:31.130Z,2.9
2018-10-17T03:16:21.279Z,2.9
2018-10-17T03:17:11.856Z,2.9
2018-10-17T03:18:01.280Z,2.9
2018-10-17T03:18:51.103Z,3
2018-10-17T03:19:41.348Z,3
2018-10-17T03:20:31.176Z,3
2018-10-17T03:21:21.268Z,3
2018-10-17T03:22:11.334Z,2.9
2018-10-17T03:23:01.953Z,3
2018-10-17T03:23:51.706Z,2.9
2018-10-17T03:24:41.504Z,3
2018-10-17T03:25:32.339Z,3
2018-10-17T03:26:21.598Z,3
2018-10-17T03:27:11.933Z,3.1
2018-10-17T03:28:02.288Z,3.1
2018-10-17T03:28:51.800Z,3.1
2018-10-17T03:29:41.548Z,3.1
2018-10-17T03:30:31.913Z,3.1
2018-10-17T03:31:22.612Z,3.1
2018-10-17T03:32:12.372Z,3.1
2018-10-17T03:33:02.389Z,3.1
2018-10-17T03:33:52.428Z,3.1
2018-10-17T03:34:42.528Z,3.1
2018-10-17T03:35:32.292Z,3.1
2018-10-17T03:36:22.638Z,3.1
2018-10-17T03:37:13.449Z,3.1
2018-10-17T03:38:02.534Z,3.1
2018-10-17T03:38:52.849Z,3.1
2018-10-17T03:39:42.977Z,3.1
2018-10-17T03:40:32.960Z,3.1
2018-10-17T03:41:22.808Z,3.1
2018-10-17T03:42:13.161Z,3.1
2018-10-17T03:43:02.716Z,3.1
2018-10-17T03:43:53.250Z,3.1
2018-10-17T03:44:43.212Z,3.1
2018-10-17T03:45:33.302Z,3.1
2018-10-17T03:46:23.073Z,3.2
2018-10-17T03:47:14.172Z,3.2
2018-10-17T03:48:02.665Z,3.2
2018-10-17T03:48:53.462Z,3.2
2018-10-17T03:49:43.865Z,3.2
2018-10-17T03:50:33.427Z,3.2
2018-10-17T03:51:23.749Z,3.2
2018-10-17T03:52:13.828Z,3.2
2018-10-17T03:53:04.390Z,3.2
2018-10-17T03:53:53.912Z,3.2
2018-10-17T03:54:44.002Z,3.2
2018-10-17T03:55:34.060Z,3.2
2018-10-17T03:56:23.809Z,3.3
2018-10-17T03:57:14.145Z,3.3
2018-10-17T03:58:03.635Z,3.3
2018-10-17T03:58:54.466Z,3.3
2018-10-17T03:59:44.864Z,3.3
2018-10-17T04:00:34.137Z,3.3
2018-10-17T04:01:23.879Z,3.3
2018-10-17T04:02:14.542Z,3.2
2018-10-17T04:03:04.839Z,3.3
2018-10-17T04:03:54.655Z,3.3
2018-10-17T04:04:44.129Z,3.3
2018-10-17T04:05:34.783Z,3.3
2018-10-17T04:06:25.104Z,3.3
2018-10-17T04:07:15.445Z,3.3
2018-10-17T04:08:04.946Z,3.3
2018-10-17T04:08:54.993Z,3.3
2018-10-17T04:09:45.098Z,3.2
2018-10-17T04:10:34.834Z,3.3
2018-10-17T04:11:24.937Z,3.2
2018-10-17T04:12:14.951Z,3.2
2018-10-17T04:13:05.652Z,3.2
2018-10-17T04:13:55.372Z,3.2
2018-10-17T04:14:45.435Z,3.2
2018-10-17T04:15:35.505Z,3.2
2018-10-17T04:16:25.553Z,3.2
2018-10-17T04:17:16.001Z,3.2
2018-10-17T04:18:05.710Z,3.2
2018-10-17T04:18:55.622Z,3.2
2018-10-17T04:19:45.810Z,3.2
2018-10-17T04:20:35.917Z,3.2
2018-10-17T04:21:25.627Z,3.2
2018-10-17T04:22:15.962Z,3.2
2018-10-17T04:23:06.699Z,3.1
2018-10-17T04:23:56.145Z,3.1
2018-10-17T04:24:46.181Z,3.1
2018-10-17T04:25:36.272Z,3.1
2018-10-17T04:26:25.994Z,3.1
2018-10-17T04:27:16.087Z,3.1
2018-10-17T04:28:06.130Z,3.1
2018-10-17T04:28:56.643Z,3.1
2018-10-17T04:29:46.234Z,3.1
2018-10-17T04:30:36.319Z,3.1
2018-10-17T04:31:26.383Z,3.1
2018-10-17T04:32:16.734Z,3.1
2018-10-17T04:33:06.496Z,3.1
2018-10-17T04:33:56.841Z,3
2018-10-17T04:34:46.895Z,3.1
2018-10-17T04:35:36.972Z,3.1
2018-10-17T04:36:26.741Z,3.1
2018-10-17T04:54:17.830Z,2.9
2018-10-17T04:55:08.024Z,2.9
2018-10-17T04:55:57.415Z,2.9
2018-10-17T04:56:47.478Z,2.9
2018-10-17T04:57:37.557Z,2.9
2018-10-17T04:58:27.618Z,2.9
2018-10-17T04:59:18.367Z,2.9
2018-10-17T05:00:07.718Z,3
2018-10-17T05:00:57.983Z,2.9
2018-10-17T05:01:47.565Z,2.9
2018-10-17T05:02:37.925Z,2.9
2018-10-17T05:03:27.967Z,2.9
2018-10-17T05:04:18.022Z,3
2018-10-17T05:05:08.522Z,2.9
2018-10-17T05:05:58.130Z,3
2018-10-17T05:06:48.463Z,3
2018-10-17T05:07:37.979Z,3
2018-10-17T05:08:28.320Z,3
2018-10-17T05:09:18.385Z,3
2018-10-17T05:10:08.451Z,3
2018-10-17T05:10:58.414Z,3
2018-10-17T05:11:48.566Z,3
2018-10-17T05:12:38.623Z,3.1
2018-10-17T05:13:28.686Z,3.1
2018-10-17T05:14:18.756Z,3.1
2018-10-17T05:15:08.717Z,3.1
2018-10-17T05:15:58.871Z,3.1
2018-10-17T05:16:48.657Z,3.1
2018-10-17T05:17:38.989Z,3.1
2018-10-17T05:18:28.769Z,3.1
2018-10-17T05:19:18.869Z,3.2
2018-10-17T05:20:09.177Z,3.2
2018-10-17T05:20:58.949Z,3.3
2018-10-17T05:21:49.006Z,3.3
2018-10-17T05:22:39.074Z,3.3
2018-10-17T05:23:29.138Z,3.4
2018-10-17T05:24:19.476Z,3.4
2018-10-17T05:25:10.276Z,3.5
2018-10-17T05:25:59.594Z,3.7
2018-10-17T05:26:49.382Z,3.8
2018-10-17T05:27:39.723Z,3.9
2018-10-17T05:28:29.788Z,4.1
2018-10-17T05:29:19.566Z,4.4
2018-10-17T05:30:09.633Z,4.6
2018-10-17T05:31:00.267Z,4.8
2018-10-17T05:31:50.036Z,5.1
2018-10-17T05:32:39.801Z,5.3
2018-10-17T05:33:30.146Z,5.6
2018-10-17T05:34:20.228Z,5.9
2018-10-17T05:35:10.847Z,6.1
2018-10-17T05:36:00.041Z,6.4
2018-10-17T05:36:50.400Z,6.8
2018-10-17T05:37:41.328Z,7
2018-10-17T05:38:30.534Z,7.4
2018-10-17T05:39:20.577Z,7.6
2018-10-17T05:40:10.631Z,7.9
2018-10-17T05:41:00.651Z,8.3
2018-10-17T05:41:50.734Z,8.6
2018-10-17T05:42:40.534Z,8.9
2018-10-17T05:43:30.887Z,9.3
2018-10-17T05:44:20.801Z,9.6
2018-10-17T05:45:11.011Z,10
2018-10-17T05:46:01.316Z,10.3
2018-10-17T05:46:51.441Z,10.7
2018-10-17T05:47:41.186Z,11.1
2018-10-17T05:48:30.951Z,11.4
2018-10-17T05:49:21.313Z,11.8
2018-10-17T05:50:10.897Z,12.1
2018-10-17T05:51:01.480Z,12.5
2018-10-17T05:51:51.203Z,12.8
2018-10-17T05:52:41.545Z,13.2
2018-10-17T05:53:31.618Z,13.6
2018-10-17T05:54:21.383Z,14
2018-10-17T05:55:12.457Z,14.4
2018-10-17T05:56:01.801Z,14.8
2018-10-17T05:56:51.855Z,15.1
2018-10-17T05:57:41.629Z,15.6
2018-10-17T05:58:31.965Z,15.9
2018-10-17T05:59:22.058Z,16.3
2018-10-17T06:00:12.107Z,16.7
2018-10-17T06:01:01.965Z,17.1
2018-10-17T06:01:52.226Z,17.4
2018-10-17T06:02:42.144Z,17.8
2018-10-17T06:03:32.343Z,18.2
2018-10-17T06:04:22.453Z,18.6
2018-10-17T06:05:13.043Z,19.1
2018-10-17T06:06:02.235Z,19.5
2018-10-17T06:06:52.761Z,19.9
2018-10-17T06:07:42.355Z,20.4
2018-10-17T06:08:32.710Z,20.8
2018-10-17T06:09:22.480Z,21.3
2018-10-17T06:10:13.213Z,21.8
2018-10-17T06:11:03.457Z,22.2
2018-10-17T06:11:52.962Z,22.7
2018-10-17T06:12:43.013Z,23.2
2018-10-17T06:13:33.075Z,23.6
2018-10-17T06:14:23.145Z,24.1
2018-10-17T06:15:12.902Z,24.6
2018-10-17T06:16:03.272Z,25.1
2018-10-17T06:16:53.731Z,25.6
2018-10-17T06:17:43.740Z,26.1
2018-10-17T06:18:33.159Z,26.6
2018-10-17T06:19:23.585Z,27
2018-10-17T06:20:13.771Z,27.5
2018-10-17T06:21:03.810Z,27.9
2018-10-17T06:21:53.874Z,28.4
2018-10-17T06:22:43.829Z,28.9
2018-10-17T06:23:33.873Z,29.3
2018-10-17T06:24:23.877Z,29.8
2018-10-17T06:25:14.705Z,30.3
2018-10-17T06:26:03.976Z,30.8
2018-10-17T06:26:54.112Z,31.3
2018-10-17T06:27:44.130Z,31.8
2018-10-17T06:28:34.194Z,32.3
2018-10-17T06:29:23.992Z,32.7
2018-10-17T06:30:14.315Z,33.1
2018-10-17T06:31:03.897Z,33.6
2018-10-17T06:31:54.429Z,34
2018-10-17T06:32:44.554Z,34.4
2018-10-17T06:33:34.584Z,34.9
2018-10-17T06:34:24.901Z,35.3
2018-10-17T06:35:15.242Z,35.7
2018-10-17T06:36:04.711Z,36.1
2018-10-17T06:36:54.917Z,36.6
2018-10-17T06:37:44.845Z,37
2018-10-17T06:38:34.895Z,37.4
2018-10-17T06:39:24.999Z,37.9
2018-10-17T06:40:15.052Z,38.3
2018-10-17T06:41:04.896Z,38.8
2018-10-17T06:41:54.572Z,39.2
2018-10-17T06:42:45.229Z,39.6
2018-10-17T06:43:35.499Z,40.1
2018-10-17T06:44:25.350Z,40.5
2018-10-17T06:45:15.392Z,40.9
2018-10-17T06:46:05.174Z,41.4
2018-10-17T06:46:55.712Z,41.8
2018-10-17T06:47:45.560Z,42.3
2018-10-17T06:48:35.065Z,42.8
2018-10-17T06:49:25.722Z,43.1
2018-10-17T06:50:15.760Z,43.6
2018-10-17T06:51:06.032Z,44
2018-10-17T06:51:55.884Z,44.4
2018-10-17T06:52:45.938Z,44.8
2018-10-17T06:53:35.999Z,45.3
2018-10-17T06:54:26.013Z,45.6
2018-10-17T06:55:16.579Z,46.1
2018-10-17T06:56:05.904Z,46.4
2018-10-17T06:56:56.223Z,46.8
2018-10-17T06:57:46.311Z,47.2
2018-10-17T06:58:36.369Z,47.5
2018-10-17T06:59:26.142Z,47.8
2018-10-17T07:00:16.486Z,48.2
2018-10-17T07:01:07.094Z,48.5
2018-10-17T07:01:57.651Z,48.9
2018-10-17T07:02:46.371Z,49.2
2018-10-17T07:03:36.713Z,50.2
2018-10-17T07:04:26.781Z,51.4
2018-10-17T07:05:17.197Z,50.3
2018-10-17T07:06:06.902Z,48.6
2018-10-17T07:06:57.189Z,45.8
2018-10-17T07:07:47.024Z,43.5
2018-10-17T07:08:37.310Z,42.2
2018-10-17T07:09:26.885Z,41.3
2018-10-17T07:10:17.198Z,40.8
2018-10-17T07:11:07.738Z,40.5
2018-10-17T07:11:57.337Z,40.4
2018-10-17T07:12:47.118Z,40.6
2018-10-17T07:13:37.476Z,40.8
2018-10-17T07:15:17.354Z,41.5
2018-10-17T07:16:07.656Z,41.9
2018-10-17T07:16:57.979Z,42.4
2018-10-17T07:17:47.775Z,43
2018-10-17T07:18:37.823Z,43.6
2018-10-17T07:19:28.146Z,44.3
2018-10-17T07:20:17.944Z,44.9
2018-10-17T07:21:08.002Z,45.6
2018-10-17T07:21:57.600Z,46.3
2018-10-17T07:22:48.125Z,46.9
2018-10-17T07:23:37.904Z,47.6
2018-10-17T07:24:28.255Z,48.3
2018-10-17T07:25:18.948Z,48.9
2018-10-17T07:26:08.382Z,49.6
2018-10-17T07:26:58.449Z,50.8
2018-10-17T07:28:38.714Z,51.4
2018-10-17T07:29:29.925Z,50.1
2018-10-17T07:30:18.676Z,48.4
2018-10-17T07:31:08.984Z,46.8
2018-10-17T07:31:58.514Z,45.4
2018-10-17T07:32:48.594Z,44.8
2018-10-17T07:33:38.970Z,44.6
2018-10-17T07:34:28.979Z,44.6
2018-10-17T07:35:19.044Z,44.9
2018-10-17T07:36:09.522Z,45.3
2018-10-17T07:36:59.416Z,45.9
2018-10-17T07:37:48.944Z,46.6
2018-10-17T07:38:39.305Z,47.4
2018-10-17T07:39:29.349Z,48.1
2018-10-17T07:40:19.659Z,48.9
2018-10-17T07:41:09.474Z,49.8
2018-10-17T07:41:59.419Z,51.6
2018-10-17T07:42:49.609Z,52.7
2018-10-17T07:43:39.678Z,52.7
2018-10-17T07:45:19.782Z,51.4
2018-10-17T07:46:09.854Z,49.9
2018-10-17T07:46:59.921Z,48.8
2018-10-17T07:47:49.979Z,48.6
2018-10-17T07:48:40.031Z,49.3
2018-10-17T07:49:29.811Z,49.9
2018-10-17T07:50:20.139Z,50.4
2018-10-17T07:51:10.206Z,50.6
2018-10-17T07:51:59.986Z,50.5
2018-10-17T07:52:50.064Z,50.3
2018-10-17T07:53:40.853Z,50.1
2018-10-17T07:54:30.456Z,50.1
2018-10-17T07:55:20.769Z,50.4
2018-10-17T07:56:10.573Z,50.8
2018-10-17T07:57:00.643Z,51
2018-10-17T07:57:50.718Z,51.3
2018-10-17T07:58:40.768Z,51.4
2018-10-17T07:59:30.645Z,51.4
2018-10-17T08:00:20.816Z,51.5
2018-10-17T08:01:10.375Z,51.6
2018-10-17T08:02:00.732Z,51.8
2018-10-17T08:03:41.126Z,52.1
2018-10-17T08:04:31.187Z,52.3
2018-10-17T08:05:21.248Z,52.5
2018-10-17T08:06:11.993Z,52.6
2018-10-17T08:07:01.387Z,52.8
2018-10-17T08:07:51.151Z,52.9
2018-10-17T08:08:41.487Z,53.1
2018-10-17T08:09:31.560Z,53.2
2018-10-17T08:10:21.342Z,53.3
2018-10-17T08:11:11.692Z,53.4
2018-10-17T08:12:02.040Z,53.6
2018-10-17T08:12:51.810Z,53.8
2018-10-17T08:13:41.577Z,53.9
2018-10-17T08:14:31.922Z,54.1
2018-10-17T08:15:21.713Z,54.2
2018-10-17T08:16:12.047Z,54.4
2018-10-17T08:17:01.710Z,54.4
2018-10-17T08:17:52.236Z,54.6
2018-10-17T08:18:42.251Z,54.7
2018-10-17T08:19:32.007Z,54.8
2018-10-17T08:20:22.359Z,54.9
2018-10-17T08:21:12.581Z,55
2018-10-17T08:22:02.512Z,55.2
2018-10-17T08:22:52.558Z,55.3
2018-10-17T08:23:42.614Z,55.5
2018-10-17T08:24:32.662Z,55.6
2018-10-17T08:25:22.746Z,55.8
2018-10-17T08:26:12.786Z,55.9
2018-10-17T08:27:02.579Z,56
2018-10-17T08:27:52.916Z,56.1
2018-10-17T08:28:42.959Z,56.2
2018-10-17T08:29:32.751Z,56.3
2018-10-17T08:30:23.104Z,56.4
2018-10-17T08:31:13.163Z,56.6
2018-10-17T08:32:02.925Z,56.8
2018-10-17T08:32:53.276Z,57
2018-10-17T08:33:43.351Z,57.1
2018-10-17T08:34:33.393Z,57.4
2018-10-17T08:35:24.014Z,57.4
2018-10-17T08:36:13.322Z,57.6
2018-10-17T08:37:06.691Z,57.7
2018-10-17T08:37:55.273Z,57.8
2018-10-17T08:38:43.700Z,57.9
2018-10-17T08:39:33.771Z,58.1
2018-10-17T08:40:23.833Z,58.1
2018-10-17T08:41:14.624Z,58.2
2018-10-17T08:42:03.932Z,58.3
2018-10-17T08:42:53.732Z,58.4
2018-10-17T08:43:44.128Z,58.5
2018-10-17T08:47:54.095Z,58.6
2018-10-17T08:48:44.460Z,58.8
2018-10-17T08:49:34.518Z,58.8
2018-10-17T08:50:24.580Z,59
2018-10-17T08:51:14.621Z,59.1
2018-10-17T08:52:04.712Z,59.3
2018-10-17T09:08:50.594Z,61.6
2018-10-17T09:09:40.127Z,61.6
2018-10-17T09:10:30.450Z,61.6
2018-10-17T09:11:20.507Z,61.7
2018-10-17T09:12:11.067Z,61.8
2018-10-17T09:13:00.675Z,61.9
2018-10-17T09:13:50.698Z,61.9
2018-10-17T09:14:40.464Z,61.9
2018-10-17T09:15:30.827Z,62
2018-10-17T09:16:21.138Z,62
2018-10-17T09:17:10.930Z,62.1
2018-10-17T09:18:00.861Z,62
2018-10-17T09:18:51.066Z,62
2018-10-17T09:19:42.999Z,61.9
2018-10-17T09:20:31.874Z,61.8
2018-10-17T09:21:24.175Z,61.8
2018-10-17T09:22:14.656Z,61.8
2018-10-17T09:23:01.359Z,61.8
2018-10-17T09:23:51.133Z,61.9
2018-10-17T09:24:41.487Z,62
2018-10-17T09:25:32.051Z,62.1
2018-10-17T09:26:21.599Z,62.3
2018-10-17T09:27:11.674Z,62.4
2018-10-17T09:28:01.670Z,62.6
2018-10-17T09:28:51.834Z,62.8
2018-10-17T09:29:41.841Z,62.9
2018-10-17T09:30:32.908Z,63.1
2018-10-17T09:31:21.971Z,63.2
2018-10-17T09:32:12.040Z,63.3
2018-10-17T09:33:01.812Z,63.3
2018-10-17T09:33:52.278Z,63.4
2018-10-17T09:34:42.229Z,63.4
2018-10-17T09:35:32.622Z,63.4
2018-10-17T09:36:22.639Z,63.6
2018-10-17T09:37:12.406Z,63.7
2018-10-17T09:38:02.475Z,63.8
2018-10-17T09:38:52.763Z,63.9
2018-10-17T09:39:42.586Z,63.9
2018-10-17T09:40:32.651Z,64
2018-10-17T09:41:22.438Z,64.1
2018-10-17T09:42:13.389Z,64.2
2018-10-17T09:43:02.670Z,64.3
2018-10-17T09:43:53.123Z,64.4
2018-10-17T09:44:42.952Z,64.5
2018-10-17T09:45:32.732Z,64.6
2018-10-17T09:46:23.091Z,64.7
2018-10-17T09:47:13.131Z,64.8
2018-10-17T09:48:03.602Z,64.9
2018-10-17T09:48:53.008Z,65
2018-10-17T09:49:43.344Z,65.1
2018-10-17T09:50:33.321Z,65.3
2018-10-17T09:51:23.465Z,65.3
2018-10-17T09:52:13.810Z,65.4
2018-10-17T09:53:03.575Z,65.5
2018-10-17T09:53:53.750Z,65.6
2018-10-17T09:54:43.695Z,65.7
2018-10-17T09:55:33.753Z,65.8
2018-10-17T09:56:23.864Z,65.8
2018-10-17T09:57:13.586Z,65.8
2018-10-17T09:58:04.151Z,65.9
2018-10-17T09:58:53.997Z,66
2018-10-17T09:59:43.771Z,66
2018-10-17T10:00:33.838Z,66.1
2018-10-17T10:01:24.180Z,66.1
2018-10-17T10:02:14.587Z,66.3
2018-10-17T10:03:04.309Z,66.3
2018-10-17T10:03:54.584Z,66.4
2018-10-17T10:04:44.429Z,66.6
2018-10-17T10:05:34.747Z,66.6
2018-10-17T10:06:24.550Z,66.6
2018-10-17T10:07:14.332Z,66.4
2018-10-17T10:08:04.674Z,66.3
2018-10-17T10:08:54.726Z,66.2
2018-10-17T10:09:44.807Z,66
2018-10-17T10:10:34.864Z,65.9
2018-10-17T10:11:24.921Z,65.9
2018-10-17T10:12:15.853Z,65.8
2018-10-17T10:13:05.040Z,65.7
2018-10-17T10:13:56.245Z,65.6
2018-10-17T10:14:45.431Z,65.6
2018-10-17T10:15:35.255Z,65.6
2018-10-17T10:16:25.392Z,65.6
2018-10-17T10:17:15.539Z,65.6
2018-10-17T10:18:04.561Z,65.6
2018-10-17T10:18:55.478Z,65.6
2018-10-17T10:19:45.546Z,65.6
2018-10-17T10:20:35.603Z,65.6
2018-10-17T10:21:25.681Z,65.5
2018-10-17T10:22:16.462Z,65.4
2018-10-17T10:23:05.948Z,65.4
2018-10-17T10:23:55.645Z,65.4
2018-10-17T10:24:46.554Z,65.4
2018-10-17T10:25:35.995Z,65.5
2018-10-17T10:26:25.770Z,65.6
2018-10-17T10:27:16.132Z,65.7
2018-10-17T10:28:06.866Z,65.8
2018-10-17T10:28:56.214Z,65.8
2018-10-17T10:29:46.810Z,65.8
2018-10-17T10:30:36.350Z,65.8
2018-10-17T10:31:26.397Z,65.8
2018-10-17T10:32:16.482Z,65.8
2018-10-17T10:33:06.841Z,65.8
2018-10-17T10:33:56.868Z,65.8
2018-10-17T10:34:46.656Z,65.8
2018-10-17T10:35:36.451Z,65.8
2018-10-17T10:36:26.758Z,65.9
2018-10-17T10:37:16.546Z,65.9
2018-10-17T10:38:06.933Z,66
2018-10-17T10:38:56.663Z,66
2018-10-17T10:39:47.037Z,66
2018-10-17T10:40:37.500Z,66
2018-10-17T10:41:27.394Z,65.8
2018-10-17T10:42:17.642Z,65.6
2018-10-17T10:43:07.254Z,65.5
2018-10-17T10:43:57.535Z,65.3
2018-10-17T10:44:47.522Z,65.2
2018-10-17T10:45:38.092Z,65.1
2018-10-17T10:46:27.502Z,65.1
2018-10-17T10:47:17.562Z,65.1
2018-10-17T10:48:08.162Z,65.2
2018-10-17T10:48:57.697Z,65.3
2018-10-17T10:49:47.747Z,65.3
2018-10-17T10:50:37.817Z,65.3
2018-10-17T10:51:27.787Z,65.3
2018-10-17T10:52:17.654Z,65.3
2018-10-17T10:53:08.595Z,65.2
2018-10-17T10:53:58.282Z,65.1
2018-10-17T10:54:47.839Z,65.1
2018-10-17T10:55:38.169Z,65
2018-10-17T10:56:28.247Z,64.9
2018-10-17T10:57:18.542Z,64.9
2018-10-17T10:58:09.104Z,64.9
2018-10-17T10:58:59.097Z,65
2018-10-17T10:59:48.635Z,65.1
2018-10-17T11:00:38.544Z,65.1
2018-10-17T11:01:28.604Z,65.2
2018-10-17T11:02:19.046Z,65.3
2018-10-17T11:03:08.848Z,65.2
2018-10-17T11:03:58.498Z,65.1
2018-10-17T11:04:49.515Z,65
2018-10-17T11:05:40.727Z,64.9
2018-10-17T11:06:28.967Z,64.9
2018-10-17T11:07:19.011Z,64.8
2018-10-17T11:08:09.503Z,64.8
2018-10-17T11:08:59.156Z,64.8
2018-10-17T11:09:49.223Z,64.8
2018-10-17T11:10:39.285Z,64.8
2018-10-17T11:11:29.348Z,64.9
2018-10-17T11:12:19.405Z,64.9
2018-10-17T11:13:09.465Z,65.1
2018-10-17T11:14:00.127Z,65.1
2018-10-17T11:14:50.989Z,65.1
2018-10-17T11:15:39.640Z,65.2
2018-10-17T11:16:29.720Z,65.2
2018-10-17T11:17:19.493Z,65.3
2018-10-17T11:18:09.845Z,65.3
2018-10-17T11:18:59.887Z,65.3
2018-10-17T11:19:49.947Z,65.3
2018-10-17T11:20:39.747Z,65.3
2018-10-17T11:21:29.233Z,65.1
2018-10-17T11:22:20.195Z,65.1
2018-10-17T11:23:10.274Z,64.9
2018-10-17T11:23:59.972Z,64.9
2018-10-17T11:24:50.328Z,64.9
2018-10-17T11:25:40.375Z,64.8
2018-10-17T11:26:30.454Z,64.8
2018-10-17T11:27:20.670Z,64.8
2018-10-17T11:28:10.564Z,64.8
2018-10-17T11:29:00.855Z,64.8
2018-10-17T11:29:50.687Z,64.7
2018-10-17T11:30:40.461Z,64.6
2018-10-17T11:31:30.735Z,64.4
2018-10-17T11:32:20.924Z,64.3
2018-10-17T11:33:11.548Z,64.2
2018-10-17T11:34:01.009Z,64.1
2018-10-17T11:34:51.075Z,64
2018-10-17T11:35:41.139Z,63.9
2018-10-17T11:36:31.232Z,63.9
2018-10-17T11:37:21.714Z,63.8
2018-10-17T11:38:11.041Z,63.8
2018-10-17T11:39:01.746Z,63.8
2018-10-17T11:39:51.218Z,63.8
2018-10-17T11:40:42.409Z,63.8
2018-10-17T11:41:32.078Z,63.8
2018-10-17T11:42:21.322Z,63.8
2018-10-17T11:43:11.686Z,63.9
2018-10-17T11:44:01.806Z,63.9
2018-10-17T11:44:51.895Z,64
2018-10-17T11:45:41.877Z,63.9
2018-10-17T11:46:31.934Z,63.9
2018-10-17T11:47:22.012Z,63.9
2018-10-17T11:48:12.045Z,63.9
2018-10-17T11:49:01.842Z,64
2018-10-17T11:49:51.898Z,64.1
2018-10-17T11:50:42.511Z,64.1
2018-10-17T11:51:32.293Z,64.3
2018-10-17T11:52:22.358Z,64.3
2018-10-17T11:53:12.324Z,64.4
2018-10-17T11:54:02.507Z,64.4
2018-10-17T11:54:52.245Z,64.4
2018-10-17T11:55:42.604Z,64.4
2018-10-17T11:56:32.705Z,64.3
2018-10-17T11:57:22.491Z,64.3
2018-10-17T11:58:12.832Z,64.3
2018-10-17T11:59:02.821Z,64.3
2018-10-17T11:59:52.683Z,64.2
2018-10-17T12:00:43.025Z,64.1
2018-10-17T12:01:32.837Z,64
2018-10-17T12:02:22.862Z,63.9
2018-10-17T12:03:13.534Z,63.8
2018-10-17T12:04:05.579Z,63.8
2018-10-17T12:04:53.968Z,63.8
2018-10-17T12:05:44.691Z,63.8
2018-10-17T12:06:33.823Z,63.8
2018-10-17T14:07:35.500Z,46.8
2018-10-17T14:08:25.262Z,46.5
2018-10-17T14:09:15.668Z,46.3
2018-10-17T14:10:05.669Z,46.1
2018-10-17T14:10:55.731Z,45.9
2018-10-17T14:11:46.158Z,45.8
2018-10-17T14:12:35.837Z,45.6
2018-10-17T14:13:25.988Z,45.4
2018-10-17T14:14:15.672Z,45.2
2018-10-17T14:15:06.084Z,45.1
2018-10-17T14:15:56.085Z,44.9
2018-10-17T14:16:45.848Z,44.8
2018-10-17T14:17:36.163Z,44.6